sensor_id;sensor_type;location;lat;lon;timestamp;temperature;humidity
7445;DHT22;3764;48.126;11.594;2023-03-12T00:01:17;2.40;99.90
7445;DHT22;3764;48.126;11.594;2023-03-12T00:03:46;2.50;99.90
7445;DHT22;3764;48.126;11.594;2023-03-12T00:06:14;2.70;99.90
7445;DHT22;3764;48.126;11.594;2023-03-12T00:08:41;2.80;99.90
7445;DHT22;3764;48.126;11.594;2023-03-12T00:11:10;2.90;99.90
7445;DHT22;3764;48.126;11.594;2023-03-12T00:13:38;3.00;99.90
7445;DHT22;3764;48.126;11.594;2023-03-12T00:16:07;3.00;99.90
7445;DHT22;3764;48.126;11.594;2023-03-12T00:18:34;3.00;99.60
7445;DHT22;3764;48.126;11.594;2023-03-12T00:21:04;2.90;99.90
7445;DHT22;3764;48.126;11.594;2023-03-12T00:23:31;2.90;99.90
7445;DHT22;3764;48.126;11.594;2023-03-12T00:25:59;3.00;99.90
7445;DHT22;3764;48.126;11.594;2023-03-12T00:28:27;3.00;99.90
7445;DHT22;3764;48.126;11.594;2023-03-12T00:30:54;3.10;99.90
7445;DHT22;3764;48.126;11.594;2023-03-12T00:33:23;3.00;99.90
7445;DHT22;3764;48.126;11.594;2023-03-12T00:35:50;3.00;99.90
7445;DHT22;3764;48.126;11.594;2023-03-12T00:38:19;3.10;99.90
7445;DHT22;3764;48.126;11.594;2023-03-12T00:40:46;3.10;99.90
7445;DHT22;3764;48.126;11.594;2023-03-12T00:43:14;3.00;99.90
7445;DHT22;3764;48.126;11.594;2023-03-12T00:45:41;2.80;99.90
7445;DHT22;3764;48.126;11.594;2023-03-12T00:48:08;2.70;99.90
7445;DHT22;3764;48.126;11.594;2023-03-12T00:50:35;2.60;99.90
7445;DHT22;3764;48.126;11.594;2023-03-12T00:53:02;2.40;99.90
7445;DHT22;3764;48.126;11.594;2023-03-12T00:55:31;2.50;99.90
7445;DHT22;3764;48.126;11.594;2023-03-12T00:57:58;2.50;99.90
7445;DHT22;3764;48.126;11.594;2023-03-12T01:00:25;2.40;99.90
7445;DHT22;3764;48.126;11.594;2023-03-12T01:03:01;2.20;99.90
7445;DHT22;3764;48.126;11.594;2023-03-12T01:05:28;2.20;99.90
7445;DHT22;3764;48.126;11.594;2023-03-12T01:07:56;2.10;99.90
7445;DHT22;3764;48.126;11.594;2023-03-12T01:10:23;2.10;99.90
7445;DHT22;3764;48.126;11.594;2023-03-12T01:12:52;2.10;99.90
7445;DHT22;3764;48.126;11.594;2023-03-12T01:15:19;2.20;99.90
7445;DHT22;3764;48.126;11.594;2023-03-12T01:17:46;2.30;99.90
7445;DHT22;3764;48.126;11.594;2023-03-12T01:20:14;2.50;99.90
7445;DHT22;3764;48.126;11.594;2023-03-12T01:22:41;2.60;99.90
7445;DHT22;3764;48.126;11.594;2023-03-12T01:25:09;2.60;99.90
7445;DHT22;3764;48.126;11.594;2023-03-12T01:27:36;2.40;99.90
7445;DHT22;3764;48.126;11.594;2023-03-12T01:30:05;2.30;99.90
7445;DHT22;3764;48.126;11.594;2023-03-12T01:32:33;2.20;99.90
7445;DHT22;3764;48.126;11.594;2023-03-12T01:35:03;2.30;99.90
7445;DHT22;3764;48.126;11.594;2023-03-12T01:37:31;2.50;99.90
7445;DHT22;3764;48.126;11.594;2023-03-12T01:39:59;2.50;99.90
7445;DHT22;3764;48.126;11.594;2023-03-12T01:42:26;2.50;99.90
7445;DHT22;3764;48.126;11.594;2023-03-12T01:44:56;2.40;99.90
7445;DHT22;3764;48.126;11.594;2023-03-12T01:47:25;2.40;99.90
7445;DHT22;3764;48.126;11.594;2023-03-12T01:49:54;2.50;99.90
7445;DHT22;3764;48.126;11.594;2023-03-12T01:52:24;2.50;99.90
7445;DHT22;3764;48.126;11.594;2023-03-12T01:54:55;2.70;99.90
7445;DHT22;3764;48.126;11.594;2023-03-12T01:57:27;2.80;99.90
7445;DHT22;3764;48.126;11.594;2023-03-12T01:59:59;2.90;99.90
7445;DHT22;3764;48.126;11.594;2023-03-12T02:02:31;2.70;99.90
7445;DHT22;3764;48.126;11.594;2023-03-12T02:05:05;2.60;99.90
7445;DHT22;3764;48.126;11.594;2023-03-12T02:07:33;2.40;99.90
7445;DHT22;3764;48.126;11.594;2023-03-12T02:10:01;2.30;99.90
7445;DHT22;3764;48.126;11.594;2023-03-12T02:12:29;2.10;99.90
7445;DHT22;3764;48.126;11.594;2023-03-12T02:14:57;2.10;99.90
7445;DHT22;3764;48.126;11.594;2023-03-12T02:17:24;2.10;99.90
7445;DHT22;3764;48.126;11.594;2023-03-12T02:19:59;2.00;99.90
7445;DHT22;3764;48.126;11.594;2023-03-12T02:22:33;2.10;99.90
7445;DHT22;3764;48.126;11.594;2023-03-12T02:25:14;2.00;99.90
7445;DHT22;3764;48.126;11.594;2023-03-12T02:27:42;1.90;99.90
7445;DHT22;3764;48.126;11.594;2023-03-12T02:30:10;1.90;99.90
7445;DHT22;3764;48.126;11.594;2023-03-12T02:32:41;1.90;99.90
7445;DHT22;3764;48.126;11.594;2023-03-12T02:35:10;1.90;99.90
7445;DHT22;3764;48.126;11.594;2023-03-12T02:37:46;1.90;99.90
7445;DHT22;3764;48.126;11.594;2023-03-12T02:40:19;1.90;99.90
7445;DHT22;3764;48.126;11.594;2023-03-12T02:42:48;1.90;99.90
7445;DHT22;3764;48.126;11.594;2023-03-12T02:45:17;1.90;99.90
7445;DHT22;3764;48.126;11.594;2023-03-12T02:47:45;1.90;99.90
7445;DHT22;3764;48.126;11.594;2023-03-12T02:50:12;1.90;99.90
7445;DHT22;3764;48.126;11.594;2023-03-12T02:52:39;1.90;99.90
7445;DHT22;3764;48.126;11.594;2023-03-12T02:55:07;1.90;99.90
7445;DHT22;3764;48.126;11.594;2023-03-12T02:57:36;1.80;99.90
7445;DHT22;3764;48.126;11.594;2023-03-12T03:00:04;1.80;99.90
7445;DHT22;3764;48.126;11.594;2023-03-12T03:02:31;1.80;99.90
7445;DHT22;3764;48.126;11.594;2023-03-12T03:04:58;1.90;99.90
7445;DHT22;3764;48.126;11.594;2023-03-12T03:07:26;1.90;99.90
7445;DHT22;3764;48.126;11.594;2023-03-12T03:09:53;1.90;99.90
7445;DHT22;3764;48.126;11.594;2023-03-12T03:12:20;1.90;99.90
7445;DHT22;3764;48.126;11.594;2023-03-12T03:14:48;2.00;99.90
7445;DHT22;3764;48.126;11.594;2023-03-12T03:17:15;2.00;99.90
7445;DHT22;3764;48.126;11.594;2023-03-12T03:19:43;2.10;99.90
7445;DHT22;3764;48.126;11.594;2023-03-12T03:22:10;2.10;99.90
7445;DHT22;3764;48.126;11.594;2023-03-12T03:24:37;2.10;99.90
7445;DHT22;3764;48.126;11.594;2023-03-12T03:27:04;2.10;99.90
7445;DHT22;3764;48.126;11.594;2023-03-12T03:29:31;2.00;99.90
7445;DHT22;3764;48.126;11.594;2023-03-12T03:32:00;2.10;99.90
7445;DHT22;3764;48.126;11.594;2023-03-12T03:34:27;2.20;99.90
7445;DHT22;3764;48.126;11.594;2023-03-12T03:36:54;2.30;99.90
7445;DHT22;3764;48.126;11.594;2023-03-12T03:39:21;2.40;99.90
7445;DHT22;3764;48.126;11.594;2023-03-12T03:41:50;2.50;99.90
7445;DHT22;3764;48.126;11.594;2023-03-12T03:44:17;2.60;99.90
7445;DHT22;3764;48.126;11.594;2023-03-12T03:46:44;2.60;99.90
7445;DHT22;3764;48.126;11.594;2023-03-12T03:49:13;2.40;99.90
7445;DHT22;3764;48.126;11.594;2023-03-12T03:51:41;2.50;99.90
7445;DHT22;3764;48.126;11.594;2023-03-12T03:54:08;2.50;99.90
7445;DHT22;3764;48.126;11.594;2023-03-12T03:56:36;2.50;99.90
7445;DHT22;3764;48.126;11.594;2023-03-12T03:59:03;2.50;99.90
7445;DHT22;3764;48.126;11.594;2023-03-12T04:01:30;2.60;99.90
7445;DHT22;3764;48.126;11.594;2023-03-12T04:03:58;2.60;99.90
7445;DHT22;3764;48.126;11.594;2023-03-12T04:06:27;2.60;99.90
7445;DHT22;3764;48.126;11.594;2023-03-12T04:08:55;2.60;99.90
7445;DHT22;3764;48.126;11.594;2023-03-12T04:11:22;2.50;99.90
7445;DHT22;3764;48.126;11.594;2023-03-12T04:13:50;2.50;99.90
7445;DHT22;3764;48.126;11.594;2023-03-12T04:16:17;2.50;99.90
7445;DHT22;3764;48.126;11.594;2023-03-12T04:18:44;2.50;99.90
7445;DHT22;3764;48.126;11.594;2023-03-12T04:21:12;2.50;99.90
7445;DHT22;3764;48.126;11.594;2023-03-12T04:23:41;2.40;99.90
7445;DHT22;3764;48.126;11.594;2023-03-12T04:26:08;2.40;99.90
7445;DHT22;3764;48.126;11.594;2023-03-12T04:28:36;2.40;99.90
7445;DHT22;3764;48.126;11.594;2023-03-12T04:31:05;2.40;99.90
7445;DHT22;3764;48.126;11.594;2023-03-12T04:33:37;2.40;99.90
7445;DHT22;3764;48.126;11.594;2023-03-12T04:36:05;2.40;99.90
7445;DHT22;3764;48.126;11.594;2023-03-12T04:38:32;2.40;99.90
7445;DHT22;3764;48.126;11.594;2023-03-12T04:41:02;2.40;99.90
7445;DHT22;3764;48.126;11.594;2023-03-12T04:43:30;2.50;99.90
7445;DHT22;3764;48.126;11.594;2023-03-12T04:45:58;2.50;99.90
7445;DHT22;3764;48.126;11.594;2023-03-12T04:48:26;2.50;99.90
7445;DHT22;3764;48.126;11.594;2023-03-12T04:50:53;2.60;99.90
7445;DHT22;3764;48.126;11.594;2023-03-12T04:53:21;2.60;99.90
7445;DHT22;3764;48.126;11.594;2023-03-12T04:55:48;2.70;99.90
7445;DHT22;3764;48.126;11.594;2023-03-12T04:58:17;2.70;99.90
7445;DHT22;3764;48.126;11.594;2023-03-12T05:00:45;2.80;99.90
7445;DHT22;3764;48.126;11.594;2023-03-12T05:03:13;2.90;99.90
7445;DHT22;3764;48.126;11.594;2023-03-12T05:05:41;2.80;99.90
7445;DHT22;3764;48.126;11.594;2023-03-12T05:08:08;2.70;99.90
7445;DHT22;3764;48.126;11.594;2023-03-12T05:10:35;2.70;99.90
7445;DHT22;3764;48.126;11.594;2023-03-12T05:13:02;2.70;99.90
7445;DHT22;3764;48.126;11.594;2023-03-12T05:15:31;2.70;99.90
7445;DHT22;3764;48.126;11.594;2023-03-12T05:17:58;2.70;99.90
7445;DHT22;3764;48.126;11.594;2023-03-12T05:20:25;2.70;99.90
7445;DHT22;3764;48.126;11.594;2023-03-12T05:22:52;2.60;99.90
7445;DHT22;3764;48.126;11.594;2023-03-12T05:25:19;2.60;99.90
7445;DHT22;3764;48.126;11.594;2023-03-12T05:27:46;2.50;99.90
7445;DHT22;3764;48.126;11.594;2023-03-12T05:30:14;2.50;99.90
7445;DHT22;3764;48.126;11.594;2023-03-12T05:32:42;2.40;99.90
7445;DHT22;3764;48.126;11.594;2023-03-12T05:35:09;2.30;99.90
7445;DHT22;3764;48.126;11.594;2023-03-12T05:37:36;2.30;99.90
7445;DHT22;3764;48.126;11.594;2023-03-12T05:40:05;2.20;99.90
7445;DHT22;3764;48.126;11.594;2023-03-12T05:42:32;2.20;99.90
7445;DHT22;3764;48.126;11.594;2023-03-12T05:44:59;2.20;99.90
7445;DHT22;3764;48.126;11.594;2023-03-12T05:47:26;2.20;99.90
7445;DHT22;3764;48.126;11.594;2023-03-12T05:49:55;2.30;99.90
7445;DHT22;3764;48.126;11.594;2023-03-12T05:52:22;2.20;99.90
7445;DHT22;3764;48.126;11.594;2023-03-12T05:54:51;2.20;99.90
7445;DHT22;3764;48.126;11.594;2023-03-12T05:57:18;2.20;99.90
7445;DHT22;3764;48.126;11.594;2023-03-12T05:59:45;2.20;99.90
7445;DHT22;3764;48.126;11.594;2023-03-12T06:02:12;2.10;99.90
7445;DHT22;3764;48.126;11.594;2023-03-12T06:04:40;2.10;99.90
7445;DHT22;3764;48.126;11.594;2023-03-12T06:07:08;2.10;99.90
7445;DHT22;3764;48.126;11.594;2023-03-12T06:09:35;2.20;99.90
7445;DHT22;3764;48.126;11.594;2023-03-12T06:12:03;2.20;99.90
7445;DHT22;3764;48.126;11.594;2023-03-12T06:14:30;2.20;99.90
7445;DHT22;3764;48.126;11.594;2023-03-12T06:16:57;2.20;99.90
7445;DHT22;3764;48.126;11.594;2023-03-12T06:19:24;2.20;99.90
7445;DHT22;3764;48.126;11.594;2023-03-12T06:21:51;2.20;99.90
7445;DHT22;3764;48.126;11.594;2023-03-12T06:24:20;2.30;99.90
7445;DHT22;3764;48.126;11.594;2023-03-12T06:26:47;2.30;99.90
7445;DHT22;3764;48.126;11.594;2023-03-12T06:29:14;2.30;99.90
7445;DHT22;3764;48.126;11.594;2023-03-12T06:31:41;2.40;99.90
7445;DHT22;3764;48.126;11.594;2023-03-12T06:34:09;2.40;99.90
7445;DHT22;3764;48.126;11.594;2023-03-12T06:36:36;2.40;99.90
7445;DHT22;3764;48.126;11.594;2023-03-12T06:39:03;2.40;99.90
7445;DHT22;3764;48.126;11.594;2023-03-12T06:41:34;2.50;99.90
7445;DHT22;3764;48.126;11.594;2023-03-12T06:44:03;2.50;99.90
7445;DHT22;3764;48.126;11.594;2023-03-12T06:46:31;2.50;99.90
7445;DHT22;3764;48.126;11.594;2023-03-12T06:48:58;2.50;99.90
7445;DHT22;3764;48.126;11.594;2023-03-12T06:51:25;2.60;99.90
7445;DHT22;3764;48.126;11.594;2023-03-12T06:53:52;2.60;99.90
7445;DHT22;3764;48.126;11.594;2023-03-12T06:56:19;2.70;99.90
7445;DHT22;3764;48.126;11.594;2023-03-12T06:58:48;2.80;99.90
7445;DHT22;3764;48.126;11.594;2023-03-12T07:01:15;2.80;99.90
7445;DHT22;3764;48.126;11.594;2023-03-12T07:03:42;2.90;99.90
7445;DHT22;3764;48.126;11.594;2023-03-12T07:06:13;2.90;99.90
7445;DHT22;3764;48.126;11.594;2023-03-12T07:08:40;3.00;99.90
7445;DHT22;3764;48.126;11.594;2023-03-12T07:11:08;3.10;99.90
7445;DHT22;3764;48.126;11.594;2023-03-12T07:13:35;3.10;99.90
7445;DHT22;3764;48.126;11.594;2023-03-12T07:16:04;3.10;99.90
7445;DHT22;3764;48.126;11.594;2023-03-12T07:18:31;3.10;99.90
7445;DHT22;3764;48.126;11.594;2023-03-12T07:20:59;3.10;99.90
7445;DHT22;3764;48.126;11.594;2023-03-12T07:23:26;3.20;99.90
7445;DHT22;3764;48.126;11.594;2023-03-12T07:25:53;3.20;99.90
7445;DHT22;3764;48.126;11.594;2023-03-12T07:28:21;3.20;99.90
7445;DHT22;3764;48.126;11.594;2023-03-12T07:30:48;3.30;99.90
7445;DHT22;3764;48.126;11.594;2023-03-12T07:33:19;3.30;99.90
7445;DHT22;3764;48.126;11.594;2023-03-12T07:35:47;3.30;99.90
7445;DHT22;3764;48.126;11.594;2023-03-12T07:38:14;3.30;99.90
7445;DHT22;3764;48.126;11.594;2023-03-12T07:40:41;3.40;99.90
7445;DHT22;3764;48.126;11.594;2023-03-12T07:43:09;3.50;99.90
7445;DHT22;3764;48.126;11.594;2023-03-12T07:45:37;3.60;99.90
7445;DHT22;3764;48.126;11.594;2023-03-12T07:48:06;3.70;99.90
7445;DHT22;3764;48.126;11.594;2023-03-12T07:50:36;3.70;99.90
7445;DHT22;3764;48.126;11.594;2023-03-12T07:53:04;3.70;99.90
7445;DHT22;3764;48.126;11.594;2023-03-12T07:55:32;3.70;99.90
7445;DHT22;3764;48.126;11.594;2023-03-12T07:58:00;3.70;99.90
7445;DHT22;3764;48.126;11.594;2023-03-12T08:00:27;3.70;99.90
7445;DHT22;3764;48.126;11.594;2023-03-12T08:02:55;3.80;99.90
7445;DHT22;3764;48.126;11.594;2023-03-12T08:05:22;3.80;99.90
7445;DHT22;3764;48.126;11.594;2023-03-12T08:07:51;3.90;99.90
7445;DHT22;3764;48.126;11.594;2023-03-12T08:10:19;4.00;99.90
7445;DHT22;3764;48.126;11.594;2023-03-12T08:12:47;4.00;99.90
7445;DHT22;3764;48.126;11.594;2023-03-12T08:15:14;4.10;99.90
7445;DHT22;3764;48.126;11.594;2023-03-12T08:17:41;4.10;99.90
7445;DHT22;3764;48.126;11.594;2023-03-12T08:20:09;4.10;99.90
7445;DHT22;3764;48.126;11.594;2023-03-12T08:22:37;4.20;99.90
7445;DHT22;3764;48.126;11.594;2023-03-12T08:25:07;4.30;99.90
7445;DHT22;3764;48.126;11.594;2023-03-12T08:27:34;4.40;99.90
7445;DHT22;3764;48.126;11.594;2023-03-12T08:30:01;4.40;99.90
7445;DHT22;3764;48.126;11.594;2023-03-12T08:32:29;4.40;99.90
7445;DHT22;3764;48.126;11.594;2023-03-12T08:34:56;4.40;99.90
7445;DHT22;3764;48.126;11.594;2023-03-12T08:37:23;4.40;99.90
7445;DHT22;3764;48.126;11.594;2023-03-12T08:39:50;4.40;99.90
7445;DHT22;3764;48.126;11.594;2023-03-12T08:42:18;4.40;99.90
7445;DHT22;3764;48.126;11.594;2023-03-12T08:44:45;4.40;99.90
7445;DHT22;3764;48.126;11.594;2023-03-12T08:47:13;4.40;99.90
7445;DHT22;3764;48.126;11.594;2023-03-12T08:49:40;4.40;99.90
7445;DHT22;3764;48.126;11.594;2023-03-12T08:52:07;4.40;99.90
7445;DHT22;3764;48.126;11.594;2023-03-12T08:54:34;4.50;99.90
7445;DHT22;3764;48.126;11.594;2023-03-12T08:57:01;4.50;99.90
7445;DHT22;3764;48.126;11.594;2023-03-12T08:59:29;4.50;99.90
7445;DHT22;3764;48.126;11.594;2023-03-12T09:01:56;4.40;99.90
7445;DHT22;3764;48.126;11.594;2023-03-12T09:04:23;4.30;99.90
7445;DHT22;3764;48.126;11.594;2023-03-12T09:06:51;4.20;99.90
7445;DHT22;3764;48.126;11.594;2023-03-12T09:09:18;4.20;99.90
7445;DHT22;3764;48.126;11.594;2023-03-12T09:11:45;4.30;99.90
7445;DHT22;3764;48.126;11.594;2023-03-12T09:14:12;4.30;99.90
7445;DHT22;3764;48.126;11.594;2023-03-12T09:16:40;4.30;99.90
7445;DHT22;3764;48.126;11.594;2023-03-12T09:19:08;4.30;99.90
7445;DHT22;3764;48.126;11.594;2023-03-12T09:21:35;4.40;99.90
7445;DHT22;3764;48.126;11.594;2023-03-12T09:24:02;4.40;99.90
7445;DHT22;3764;48.126;11.594;2023-03-12T09:26:29;4.30;99.90
7445;DHT22;3764;48.126;11.594;2023-03-12T09:28:56;4.30;99.90
7445;DHT22;3764;48.126;11.594;2023-03-12T09:31:24;4.20;99.90
7445;DHT22;3764;48.126;11.594;2023-03-12T09:33:52;4.10;99.90
7445;DHT22;3764;48.126;11.594;2023-03-12T09:36:19;4.10;99.90
7445;DHT22;3764;48.126;11.594;2023-03-12T09:38:47;4.10;99.90
7445;DHT22;3764;48.126;11.594;2023-03-12T09:41:19;4.10;99.90
7445;DHT22;3764;48.126;11.594;2023-03-12T09:43:51;4.10;99.90
7445;DHT22;3764;48.126;11.594;2023-03-12T09:46:24;4.10;99.90
7445;DHT22;3764;48.126;11.594;2023-03-12T09:48:56;4.10;99.90
7445;DHT22;3764;48.126;11.594;2023-03-12T09:51:28;4.00;99.90
7445;DHT22;3764;48.126;11.594;2023-03-12T09:53:59;4.00;99.90
7445;DHT22;3764;48.126;11.594;2023-03-12T09:56:29;3.90;99.90
7445;DHT22;3764;48.126;11.594;2023-03-12T09:58:56;3.90;99.90
7445;DHT22;3764;48.126;11.594;2023-03-12T10:01:31;3.80;99.90
7445;DHT22;3764;48.126;11.594;2023-03-12T10:04:26;3.80;99.90
7445;DHT22;3764;48.126;11.594;2023-03-12T10:07:00;3.70;99.90
7445;DHT22;3764;48.126;11.594;2023-03-12T10:12:28;3.60;99.90
7445;DHT22;3764;48.126;11.594;2023-03-12T10:15:07;3.60;99.90
7445;DHT22;3764;48.126;11.594;2023-03-12T10:17:52;3.60;99.90
7445;DHT22;3764;48.126;11.594;2023-03-12T10:20:40;3.60;99.90
7445;DHT22;3764;48.126;11.594;2023-03-12T10:23:19;3.60;99.90
7445;DHT22;3764;48.126;11.594;2023-03-12T10:25:51;3.60;99.90
7445;DHT22;3764;48.126;11.594;2023-03-12T10:28:24;3.60;99.90
7445;DHT22;3764;48.126;11.594;2023-03-12T10:30:56;3.60;99.90
7445;DHT22;3764;48.126;11.594;2023-03-12T10:33:34;3.60;99.90
7445;DHT22;3764;48.126;11.594;2023-03-12T10:36:12;3.60;99.90
7445;DHT22;3764;48.126;11.594;2023-03-12T10:38:41;3.60;99.90
7445;DHT22;3764;48.126;11.594;2023-03-12T10:41:14;3.60;99.90
7445;DHT22;3764;48.126;11.594;2023-03-12T10:43:42;3.60;99.90
7445;DHT22;3764;48.126;11.594;2023-03-12T10:46:29;3.60;99.90
7445;DHT22;3764;48.126;11.594;2023-03-12T10:49:21;3.60;99.90
7445;DHT22;3764;48.126;11.594;2023-03-12T10:51:55;3.50;99.90
7445;DHT22;3764;48.126;11.594;2023-03-12T10:54:28;3.50;99.90
7445;DHT22;3764;48.126;11.594;2023-03-12T10:56:56;3.50;99.90
7445;DHT22;3764;48.126;11.594;2023-03-12T10:59:27;3.60;99.90
7445;DHT22;3764;48.126;11.594;2023-03-12T11:01:55;3.60;99.90
7445;DHT22;3764;48.126;11.594;2023-03-12T11:04:25;3.60;99.90
7445;DHT22;3764;48.126;11.594;2023-03-12T11:10:13;3.70;99.90
7445;DHT22;3764;48.126;11.594;2023-03-12T11:13:00;3.70;99.90
7445;DHT22;3764;48.126;11.594;2023-03-12T11:15:35;3.70;99.90
7445;DHT22;3764;48.126;11.594;2023-03-12T11:18:22;3.70;99.90
7445;DHT22;3764;48.126;11.594;2023-03-12T11:20:52;3.80;99.90
7445;DHT22;3764;48.126;11.594;2023-03-12T11:23:25;3.80;99.90
7445;DHT22;3764;48.126;11.594;2023-03-12T11:25:56;3.90;99.90
7445;DHT22;3764;48.126;11.594;2023-03-12T11:28:33;3.90;99.90
7445;DHT22;3764;48.126;11.594;2023-03-12T11:31:02;3.90;99.90
7445;DHT22;3764;48.126;11.594;2023-03-12T11:33:31;4.00;99.90
7445;DHT22;3764;48.126;11.594;2023-03-12T11:36:07;4.10;99.90
7445;DHT22;3764;48.126;11.594;2023-03-12T11:38:47;4.10;99.90
7445;DHT22;3764;48.126;11.594;2023-03-12T11:41:30;4.20;99.90
7445;DHT22;3764;48.126;11.594;2023-03-12T11:44:20;4.30;99.90
7445;DHT22;3764;48.126;11.594;2023-03-12T11:47:10;4.30;99.90
7445;DHT22;3764;48.126;11.594;2023-03-12T11:49:53;4.30;99.90
7445;DHT22;3764;48.126;11.594;2023-03-12T11:52:29;4.40;99.90
7445;DHT22;3764;48.126;11.594;2023-03-12T11:55:34;4.50;99.90
7445;DHT22;3764;48.126;11.594;2023-03-12T11:58:18;4.60;99.90
7445;DHT22;3764;48.126;11.594;2023-03-12T12:00:53;4.60;99.90
7445;DHT22;3764;48.126;11.594;2023-03-12T12:03:49;4.70;99.90
7445;DHT22;3764;48.126;11.594;2023-03-12T12:06:29;4.70;99.90
7445;DHT22;3764;48.126;11.594;2023-03-12T12:09:20;4.80;99.90
7445;DHT22;3764;48.126;11.594;2023-03-12T12:12:08;4.80;99.90
7445;DHT22;3764;48.126;11.594;2023-03-12T12:14:58;4.90;99.90
7445;DHT22;3764;48.126;11.594;2023-03-12T12:17:37;5.00;99.90
7445;DHT22;3764;48.126;11.594;2023-03-12T12:20:20;5.00;99.90
7445;DHT22;3764;48.126;11.594;2023-03-12T12:23:06;5.10;99.90
7445;DHT22;3764;48.126;11.594;2023-03-12T12:25:48;5.10;99.90
7445;DHT22;3764;48.126;11.594;2023-03-12T12:28:34;5.20;99.90
7445;DHT22;3764;48.126;11.594;2023-03-12T12:31:17;5.20;99.90
7445;DHT22;3764;48.126;11.594;2023-03-12T12:36:20;5.40;99.90
7445;DHT22;3764;48.126;11.594;2023-03-12T12:38:52;5.50;99.90
7445;DHT22;3764;48.126;11.594;2023-03-12T12:41:24;5.50;99.90
7445;DHT22;3764;48.126;11.594;2023-03-12T12:43:56;5.60;99.90
7445;DHT22;3764;48.126;11.594;2023-03-12T12:46:29;5.70;99.90
7445;DHT22;3764;48.126;11.594;2023-03-12T12:49:02;5.80;99.90
7445;DHT22;3764;48.126;11.594;2023-03-12T12:51:35;5.80;99.90
7445;DHT22;3764;48.126;11.594;2023-03-12T12:54:08;5.80;99.90
7445;DHT22;3764;48.126;11.594;2023-03-12T12:56:46;5.90;99.90
7445;DHT22;3764;48.126;11.594;2023-03-12T12:59:25;5.90;99.90
7445;DHT22;3764;48.126;11.594;2023-03-12T13:01:56;5.90;99.90
7445;DHT22;3764;48.126;11.594;2023-03-12T13:04:26;6.00;99.90
7445;DHT22;3764;48.126;11.594;2023-03-12T13:06:56;6.00;99.90
7445;DHT22;3764;48.126;11.594;2023-03-12T13:09:36;6.00;99.90
7445;DHT22;3764;48.126;11.594;2023-03-12T13:12:17;6.10;99.90
7445;DHT22;3764;48.126;11.594;2023-03-12T13:14:47;6.10;99.90
7445;DHT22;3764;48.126;11.594;2023-03-12T13:20:11;6.20;99.90
7445;DHT22;3764;48.126;11.594;2023-03-12T13:23:17;6.30;99.90
7445;DHT22;3764;48.126;11.594;2023-03-12T13:25:55;6.40;99.90
7445;DHT22;3764;48.126;11.594;2023-03-12T13:28:36;6.50;99.90
7445;DHT22;3764;48.126;11.594;2023-03-12T13:31:36;6.50;99.90
7445;DHT22;3764;48.126;11.594;2023-03-12T13:34:30;6.60;99.90
7445;DHT22;3764;48.126;11.594;2023-03-12T13:36:59;6.70;99.90
7445;DHT22;3764;48.126;11.594;2023-03-12T13:39:33;6.80;99.90
7445;DHT22;3764;48.126;11.594;2023-03-12T13:42:01;6.80;99.90
7445;DHT22;3764;48.126;11.594;2023-03-12T13:44:48;6.90;99.90
7445;DHT22;3764;48.126;11.594;2023-03-12T13:47:21;7.00;99.90
7445;DHT22;3764;48.126;11.594;2023-03-12T13:49:53;7.10;99.90
7445;DHT22;3764;48.126;11.594;2023-03-12T13:52:24;7.20;99.90
7445;DHT22;3764;48.126;11.594;2023-03-12T13:54:58;7.30;99.90
7445;DHT22;3764;48.126;11.594;2023-03-12T13:57:38;7.40;99.90
7445;DHT22;3764;48.126;11.594;2023-03-12T14:00:14;7.50;99.90
7445;DHT22;3764;48.126;11.594;2023-03-12T14:02:48;7.50;99.90
7445;DHT22;3764;48.126;11.594;2023-03-12T14:05:16;7.60;99.90
7445;DHT22;3764;48.126;11.594;2023-03-12T14:07:53;7.60;99.90
7445;DHT22;3764;48.126;11.594;2023-03-12T14:10:31;7.60;99.90
7445;DHT22;3764;48.126;11.594;2023-03-12T14:13:08;7.70;99.90
7445;DHT22;3764;48.126;11.594;2023-03-12T14:15:45;7.70;99.90
7445;DHT22;3764;48.126;11.594;2023-03-12T14:18:20;7.80;99.90
7445;DHT22;3764;48.126;11.594;2023-03-12T14:20:53;7.80;99.90
7445;DHT22;3764;48.126;11.594;2023-03-12T14:23:21;7.80;99.90
7445;DHT22;3764;48.126;11.594;2023-03-12T14:25:55;7.90;99.90
7445;DHT22;3764;48.126;11.594;2023-03-12T14:28:24;7.90;99.90
7445;DHT22;3764;48.126;11.594;2023-03-12T14:30:57;8.10;99.90
7445;DHT22;3764;48.126;11.594;2023-03-12T14:33:31;8.30;99.90
7445;DHT22;3764;48.126;11.594;2023-03-12T14:36:03;8.60;99.90
7445;DHT22;3764;48.126;11.594;2023-03-12T14:38:34;8.70;99.90
7445;DHT22;3764;48.126;11.594;2023-03-12T14:41:05;9.00;99.90
7445;DHT22;3764;48.126;11.594;2023-03-12T14:43:38;9.30;99.90
7445;DHT22;3764;48.126;11.594;2023-03-12T14:46:13;9.50;99.90
7445;DHT22;3764;48.126;11.594;2023-03-12T14:48:42;9.50;99.90
7445;DHT22;3764;48.126;11.594;2023-03-12T14:51:19;9.40;99.90
7445;DHT22;3764;48.126;11.594;2023-03-12T14:53:46;9.40;99.90
7445;DHT22;3764;48.126;11.594;2023-03-12T14:56:22;9.30;99.90
7445;DHT22;3764;48.126;11.594;2023-03-12T14:58:51;9.10;99.90
7445;DHT22;3764;48.126;11.594;2023-03-12T15:01:20;9.00;99.90
7445;DHT22;3764;48.126;11.594;2023-03-12T15:04:01;8.90;99.90
7445;DHT22;3764;48.126;11.594;2023-03-12T15:06:30;8.90;99.90
7445;DHT22;3764;48.126;11.594;2023-03-12T15:09:00;8.80;99.90
7445;DHT22;3764;48.126;11.594;2023-03-12T15:11:29;8.80;99.90
7445;DHT22;3764;48.126;11.594;2023-03-12T15:14:02;8.70;99.90
7445;DHT22;3764;48.126;11.594;2023-03-12T15:16:30;8.70;99.90
7445;DHT22;3764;48.126;11.594;2023-03-12T15:18:59;8.70;99.90
7445;DHT22;3764;48.126;11.594;2023-03-12T15:21:28;8.70;99.90
7445;DHT22;3764;48.126;11.594;2023-03-12T15:23:57;8.80;99.90
7445;DHT22;3764;48.126;11.594;2023-03-12T15:26:29;8.80;99.90
7445;DHT22;3764;48.126;11.594;2023-03-12T15:28:59;8.80;99.90
7445;DHT22;3764;48.126;11.594;2023-03-12T15:31:39;8.80;99.90
7445;DHT22;3764;48.126;11.594;2023-03-12T15:34:10;8.80;99.90
7445;DHT22;3764;48.126;11.594;2023-03-12T15:36:44;8.80;99.90
7445;DHT22;3764;48.126;11.594;2023-03-12T15:39:21;8.70;99.90
7445;DHT22;3764;48.126;11.594;2023-03-12T15:41:51;8.70;99.90
7445;DHT22;3764;48.126;11.594;2023-03-12T15:44:20;8.80;99.90
7445;DHT22;3764;48.126;11.594;2023-03-12T15:46:50;8.90;99.90
7445;DHT22;3764;48.126;11.594;2023-03-12T15:49:22;8.90;99.90
7445;DHT22;3764;48.126;11.594;2023-03-12T15:51:59;8.80;99.90
7445;DHT22;3764;48.126;11.594;2023-03-12T15:54:27;8.80;99.90
7445;DHT22;3764;48.126;11.594;2023-03-12T15:57:14;8.80;99.90
7445;DHT22;3764;48.126;11.594;2023-03-12T15:59:43;8.70;99.90
7445;DHT22;3764;48.126;11.594;2023-03-12T16:02:34;8.70;99.90
7445;DHT22;3764;48.126;11.594;2023-03-12T16:05:04;8.70;99.90
7445;DHT22;3764;48.126;11.594;2023-03-12T16:07:31;8.70;99.90
7445;DHT22;3764;48.126;11.594;2023-03-12T16:09:58;8.70;99.90
7445;DHT22;3764;48.126;11.594;2023-03-12T16:12:26;8.70;99.90
7445;DHT22;3764;48.126;11.594;2023-03-12T16:14:53;8.70;99.90
7445;DHT22;3764;48.126;11.594;2023-03-12T16:17:21;8.60;99.90
7445;DHT22;3764;48.126;11.594;2023-03-12T16:19:48;8.60;99.90
7445;DHT22;3764;48.126;11.594;2023-03-12T16:22:17;8.60;99.90
7445;DHT22;3764;48.126;11.594;2023-03-12T16:24:45;8.60;99.90
7445;DHT22;3764;48.126;11.594;2023-03-12T16:27:14;8.60;99.90
7445;DHT22;3764;48.126;11.594;2023-03-12T16:29:42;8.60;99.90
7445;DHT22;3764;48.126;11.594;2023-03-12T16:32:11;8.60;99.90
7445;DHT22;3764;48.126;11.594;2023-03-12T16:34:38;8.60;99.90
7445;DHT22;3764;48.126;11.594;2023-03-12T16:37:09;8.60;99.90